sensor_id;sensor_type;location;lat;lon;timestamp;P1;durP1;ratioP1;P2;durP2;ratioP2
63016;SDS011;50274;45.640;11.756;2023-08-07T00:02:06;3.20;;;0.47;;
63016;SDS011;50274;45.640;11.756;2023-08-07T00:04:32;4.83;;;0.47;;
63016;SDS011;50274;45.640;11.756;2023-08-07T00:06:57;2.13;;;0.47;;
63016;SDS011;50274;45.640;11.756;2023-08-07T00:09:23;2.75;;;0.50;;
63016;SDS011;50274;45.640;11.756;2023-08-07T00:11:49;3.00;;;0.70;;
63016;SDS011;50274;45.640;11.756;2023-08-07T00:14:15;3.05;;;0.50;;
63016;SDS011;50274;45.640;11.756;2023-08-07T00:16:41;3.05;;;0.43;;
63016;SDS011;50274;45.640;11.756;2023-08-07T00:19:07;3.13;;;0.53;;
63016;SDS011;50274;45.640;11.756;2023-08-07T00:21:32;2.35;;;0.40;;
63016;SDS011;50274;45.640;11.756;2023-08-07T00:24:00;4.53;;;0.45;;
63016;SDS011;50274;45.640;11.756;2023-08-07T00:26:26;3.83;;;0.60;;
63016;SDS011;50274;45.640;11.756;2023-08-07T00:28:52;2.07;;;0.30;;
63016;SDS011;50274;45.640;11.756;2023-08-07T00:31:18;2.88;;;0.40;;
63016;SDS011;50274;45.640;11.756;2023-08-07T00:33:44;2.10;;;0.40;;
63016;SDS011;50274;45.640;11.756;2023-08-07T00:36:10;2.07;;;0.60;;
63016;SDS011;50274;45.640;11.756;2023-08-07T00:38:36;2.38;;;0.60;;
63016;SDS011;50274;45.640;11.756;2023-08-07T00:41:02;3.10;;;0.50;;
63016;SDS011;50274;45.640;11.756;2023-08-07T00:43:28;5.43;;;0.70;;
63016;SDS011;50274;45.640;11.756;2023-08-07T00:45:53;3.17;;;0.50;;
63016;SDS011;50274;45.640;11.756;2023-08-07T00:48:19;2.90;;;0.40;;
63016;SDS011;50274;45.640;11.756;2023-08-07T00:50:45;2.00;;;0.43;;
63016;SDS011;50274;45.640;11.756;2023-08-07T00:53:13;2.00;;;0.40;;
63016;SDS011;50274;45.640;11.756;2023-08-07T00:55:39;2.58;;;0.50;;
63016;SDS011;50274;45.640;11.756;2023-08-07T00:58:05;4.78;;;0.55;;
63016;SDS011;50274;45.640;11.756;2023-08-07T01:00:31;3.33;;;0.40;;
63016;SDS011;50274;45.640;11.756;2023-08-07T01:02:57;2.28;;;0.47;;
63016;SDS011;50274;45.640;11.756;2023-08-07T01:05:24;3.75;;;0.38;;
63016;SDS011;50274;45.640;11.756;2023-08-07T01:07:52;1.80;;;0.30;;
63016;SDS011;50274;45.640;11.756;2023-08-07T01:10:25;2.35;;;0.50;;
63016;SDS011;50274;45.640;11.756;2023-08-07T01:13:07;2.55;;;0.60;;
63016;SDS011;50274;45.640;11.756;2023-08-07T01:15:45;4.13;;;0.50;;
63016;SDS011;50274;45.640;11.756;2023-08-07T01:18:14;4.55;;;0.60;;
63016;SDS011;50274;45.640;11.756;2023-08-07T01:20:40;6.13;;;0.70;;
63016;SDS011;50274;45.640;11.756;2023-08-07T01:23:06;2.33;;;0.50;;
63016;SDS011;50274;45.640;11.756;2023-08-07T01:25:32;2.05;;;0.43;;
63016;SDS011;50274;45.640;11.756;2023-08-07T01:28:06;2.33;;;0.50;;
63016;SDS011;50274;45.640;11.756;2023-08-07T01:30:40;2.92;;;0.50;;
63016;SDS011;50274;45.640;11.756;2023-08-07T01:35:44;6.50;;;0.90;;
63016;SDS011;50274;45.640;11.756;2023-08-07T01:38:12;2.95;;;0.40;;
63016;SDS011;50274;45.640;11.756;2023-08-07T01:40:39;2.47;;;0.50;;
63016;SDS011;50274;45.640;11.756;2023-08-07T01:43:07;3.10;;;0.40;;
63016;SDS011;50274;45.640;11.756;2023-08-07T01:45:33;2.78;;;0.45;;
63016;SDS011;50274;45.640;11.756;2023-08-07T01:47:59;1.75;;;0.40;;
63016;SDS011;50274;45.640;11.756;2023-08-07T01:50:25;4.13;;;0.50;;
63016;SDS011;50274;45.640;11.756;2023-08-07T01:52:53;3.47;;;0.33;;
63016;SDS011;50274;45.640;11.756;2023-08-07T01:55:19;2.75;;;0.40;;
63016;SDS011;50274;45.640;11.756;2023-08-07T01:57:46;1.92;;;0.40;;
63016;SDS011;50274;45.640;11.756;2023-08-07T02:00:12;3.47;;;0.50;;
63016;SDS011;50274;45.640;11.756;2023-08-07T02:02:38;2.70;;;0.40;;
63016;SDS011;50274;45.640;11.756;2023-08-07T02:05:04;2.47;;;0.40;;
63016;SDS011;50274;45.640;11.756;2023-08-07T02:07:30;2.90;;;0.50;;
63016;SDS011;50274;45.640;11.756;2023-08-07T02:09:57;3.95;;;0.50;;
63016;SDS011;50274;45.640;11.756;2023-08-07T02:12:23;2.78;;;0.50;;
63016;SDS011;50274;45.640;11.756;2023-08-07T02:14:50;2.37;;;0.43;;
63016;SDS011;50274;45.640;11.756;2023-08-07T02:17:16;2.67;;;0.40;;
63016;SDS011;50274;45.640;11.756;2023-08-07T02:19:43;1.52;;;0.25;;
63016;SDS011;50274;45.640;11.756;2023-08-07T02:22:09;3.75;;;0.52;;
63016;SDS011;50274;45.640;11.756;2023-08-07T02:24:34;2.73;;;0.60;;
63016;SDS011;50274;45.640;11.756;2023-08-07T02:27:00;2.20;;;0.50;;
63016;SDS011;50274;45.640;11.756;2023-08-07T02:29:26;3.20;;;0.50;;
63016;SDS011;50274;45.640;11.756;2023-08-07T02:31:52;4.80;;;0.68;;
63016;SDS011;50274;45.640;11.756;2023-08-07T02:34:17;3.33;;;0.70;;
63016;SDS011;50274;45.640;11.756;2023-08-07T02:36:43;4.18;;;0.70;;
63016;SDS011;50274;45.640;11.756;2023-08-07T02:39:09;3.22;;;0.50;;
63016;SDS011;50274;45.640;11.756;2023-08-07T02:41:35;2.73;;;0.43;;
63016;SDS011;50274;45.640;11.756;2023-08-07T02:44:00;2.65;;;0.45;;
63016;SDS011;50274;45.640;11.756;2023-08-07T02:46:26;2.33;;;0.30;;
63016;SDS011;50274;45.640;11.756;2023-08-07T02:48:52;4.03;;;0.70;;
63016;SDS011;50274;45.640;11.756;2023-08-07T02:51:19;2.35;;;0.45;;
63016;SDS011;50274;45.640;11.756;2023-08-07T02:53:44;2.25;;;0.40;;
63016;SDS011;50274;45.640;11.756;2023-08-07T02:56:10;2.37;;;0.50;;
63016;SDS011;50274;45.640;11.756;2023-08-07T02:58:36;2.67;;;0.40;;
63016;SDS011;50274;45.640;11.756;2023-08-07T03:01:05;2.77;;;0.40;;
63016;SDS011;50274;45.640;11.756;2023-08-07T03:03:31;2.53;;;0.47;;
63016;SDS011;50274;45.640;11.756;2023-08-07T03:05:57;3.65;;;0.55;;
63016;SDS011;50274;45.640;11.756;2023-08-07T03:08:23;3.10;;;0.60;;
63016;SDS011;50274;45.640;11.756;2023-08-07T03:10:53;2.97;;;0.30;;
63016;SDS011;50274;45.640;11.756;2023-08-07T03:13:20;2.42;;;0.43;;
63016;SDS011;50274;45.640;11.756;2023-08-07T03:15:47;2.53;;;0.50;;
63016;SDS011;50274;45.640;11.756;2023-08-07T03:18:15;2.25;;;0.40;;
63016;SDS011;50274;45.640;11.756;2023-08-07T03:20:43;2.50;;;0.40;;
63016;SDS011;50274;45.640;11.756;2023-08-07T03:23:09;3.67;;;0.70;;
63016;SDS011;50274;45.640;11.756;2023-08-07T03:25:36;3.05;;;0.70;;
63016;SDS011;50274;45.640;11.756;2023-08-07T03:28:02;4.68;;;0.70;;
63016;SDS011;50274;45.640;11.756;2023-08-07T03:30:28;5.07;;;0.80;;
63016;SDS011;50274;45.640;11.756;2023-08-07T03:32:54;3.00;;;0.70;;
63016;SDS011;50274;45.640;11.756;2023-08-07T03:35:20;2.70;;;0.60;;
63016;SDS011;50274;45.640;11.756;2023-08-07T03:37:46;3.10;;;0.80;;
63016;SDS011;50274;45.640;11.756;2023-08-07T03:40:11;3.17;;;0.75;;
63016;SDS011;50274;45.640;11.756;2023-08-07T03:42:37;2.53;;;0.60;;
63016;SDS011;50274;45.640;11.756;2023-08-07T03:45:03;3.40;;;0.70;;
63016;SDS011;50274;45.640;11.756;2023-08-07T03:47:29;4.03;;;0.70;;
63016;SDS011;50274;45.640;11.756;2023-08-07T03:49:55;2.67;;;0.60;;
63016;SDS011;50274;45.640;11.756;2023-08-07T03:52:21;3.53;;;0.70;;
63016;SDS011;50274;45.640;11.756;2023-08-07T03:54:46;2.95;;;0.60;;
63016;SDS011;50274;45.640;11.756;2023-08-07T03:57:12;3.10;;;0.80;;
63016;SDS011;50274;45.640;11.756;2023-08-07T03:59:38;3.42;;;0.60;;
63016;SDS011;50274;45.640;11.756;2023-08-07T04:02:04;3.63;;;0.67;;
63016;SDS011;50274;45.640;11.756;2023-08-07T04:04:30;3.93;;;0.80;;
63016;SDS011;50274;45.640;11.756;2023-08-07T04:06:55;3.50;;;0.70;;
63016;SDS011;50274;45.640;11.756;2023-08-07T04:09:21;3.17;;;0.70;;
63016;SDS011;50274;45.640;11.756;2023-08-07T04:11:47;3.27;;;0.60;;
63016;SDS011;50274;45.640;11.756;2023-08-07T04:14:13;2.42;;;0.50;;
63016;SDS011;50274;45.640;11.756;2023-08-07T04:16:39;3.03;;;0.80;;
63016;SDS011;50274;45.640;11.756;2023-08-07T04:19:05;2.97;;;0.57;;
63016;SDS011;50274;45.640;11.756;2023-08-07T04:21:32;3.15;;;0.85;;
63016;SDS011;50274;45.640;11.756;2023-08-07T04:23:59;3.15;;;0.60;;
63016;SDS011;50274;45.640;11.756;2023-08-07T04:26:33;4.97;;;0.50;;
63016;SDS011;50274;45.640;11.756;2023-08-07T04:28:59;3.05;;;0.50;;
63016;SDS011;50274;45.640;11.756;2023-08-07T04:31:25;3.17;;;0.65;;
63016;SDS011;50274;45.640;11.756;2023-08-07T04:33:51;2.10;;;0.45;;
63016;SDS011;50274;45.640;11.756;2023-08-07T04:36:17;2.47;;;0.60;;
63016;SDS011;50274;45.640;11.756;2023-08-07T04:38:42;2.88;;;0.50;;
63016;SDS011;50274;45.640;11.756;2023-08-07T04:41:08;3.43;;;0.53;;
63016;SDS011;50274;45.640;11.756;2023-08-07T04:43:34;3.33;;;0.63;;
63016;SDS011;50274;45.640;11.756;2023-08-07T04:46:00;3.53;;;0.75;;
63016;SDS011;50274;45.640;11.756;2023-08-07T04:48:26;1.90;;;0.40;;
63016;SDS011;50274;45.640;11.756;2023-08-07T04:50:51;2.70;;;0.60;;
63016;SDS011;50274;45.640;11.756;2023-08-07T04:53:17;2.33;;;0.47;;
63016;SDS011;50274;45.640;11.756;2023-08-07T04:55:43;3.00;;;0.60;;
63016;SDS011;50274;45.640;11.756;2023-08-07T04:58:09;4.07;;;0.80;;
63016;SDS011;50274;45.640;11.756;2023-08-07T05:00:35;2.40;;;0.53;;
63016;SDS011;50274;45.640;11.756;2023-08-07T05:03:01;2.80;;;0.53;;
63016;SDS011;50274;45.640;11.756;2023-08-07T05:05:26;2.80;;;0.70;;
63016;SDS011;50274;45.640;11.756;2023-08-07T05:07:54;2.83;;;0.57;;
63016;SDS011;50274;45.640;11.756;2023-08-07T05:10:20;2.90;;;0.55;;
63016;SDS011;50274;45.640;11.756;2023-08-07T05:12:46;2.77;;;0.60;;
63016;SDS011;50274;45.640;11.756;2023-08-07T05:15:12;2.50;;;0.55;;
63016;SDS011;50274;45.640;11.756;2023-08-07T05:17:37;2.90;;;0.80;;
63016;SDS011;50274;45.640;11.756;2023-08-07T05:20:03;3.42;;;0.70;;
63016;SDS011;50274;45.640;11.756;2023-08-07T05:22:30;3.28;;;0.70;;
63016;SDS011;50274;45.640;11.756;2023-08-07T05:24:56;2.70;;;0.80;;
63016;SDS011;50274;45.640;11.756;2023-08-07T05:27:22;4.15;;;1.02;;
63016;SDS011;50274;45.640;11.756;2023-08-07T05:29:48;3.00;;;0.80;;
63016;SDS011;50274;45.640;11.756;2023-08-07T05:32:14;3.53;;;0.90;;
63016;SDS011;50274;45.640;11.756;2023-08-07T05:34:40;3.53;;;0.82;;
63016;SDS011;50274;45.640;11.756;2023-08-07T05:37:06;3.95;;;0.93;;
63016;SDS011;50274;45.640;11.756;2023-08-07T05:39:33;4.30;;;0.90;;
63016;SDS011;50274;45.640;11.756;2023-08-07T05:41:59;2.83;;;0.80;;
63016;SDS011;50274;45.640;11.756;2023-08-07T05:44:25;3.95;;;0.90;;
63016;SDS011;50274;45.640;11.756;2023-08-07T05:46:53;2.97;;;0.80;;
63016;SDS011;50274;45.640;11.756;2023-08-07T05:49:19;3.53;;;0.90;;
63016;SDS011;50274;45.640;11.756;2023-08-07T05:51:46;3.08;;;0.90;;
63016;SDS011;50274;45.640;11.756;2023-08-07T05:54:11;6.00;;;1.10;;
63016;SDS011;50274;45.640;11.756;2023-08-07T05:56:37;4.00;;;1.02;;
63016;SDS011;50274;45.640;11.756;2023-08-07T05:59:03;4.23;;;0.90;;
63016;SDS011;50274;45.640;11.756;2023-08-07T06:01:29;3.25;;;0.80;;
63016;SDS011;50274;45.640;11.756;2023-08-07T06:03:59;5.03;;;0.90;;
63016;SDS011;50274;45.640;11.756;2023-08-07T06:06:26;3.42;;;0.80;;
63016;SDS011;50274;45.640;11.756;2023-08-07T06:08:55;3.88;;;0.88;;
63016;SDS011;50274;45.640;11.756;2023-08-07T06:11:21;4.03;;;0.80;;
63016;SDS011;50274;45.640;11.756;2023-08-07T06:13:48;4.43;;;0.70;;
63016;SDS011;50274;45.640;11.756;2023-08-07T06:16:14;5.72;;;1.15;;
63016;SDS011;50274;45.640;11.756;2023-08-07T06:18:40;2.47;;;0.63;;
63016;SDS011;50274;45.640;11.756;2023-08-07T06:21:06;3.08;;;0.50;;
63016;SDS011;50274;45.640;11.756;2023-08-07T06:23:35;3.47;;;0.68;;
63016;SDS011;50274;45.640;11.756;2023-08-07T06:26:01;2.80;;;0.50;;
63016;SDS011;50274;45.640;11.756;2023-08-07T06:28:29;5.57;;;0.68;;
63016;SDS011;50274;45.640;11.756;2023-08-07T06:31:04;2.97;;;0.50;;
63016;SDS011;50274;45.640;11.756;2023-08-07T06:33:32;3.42;;;0.70;;
63016;SDS011;50274;45.640;11.756;2023-08-07T06:35:58;3.63;;;0.65;;
63016;SDS011;50274;45.640;11.756;2023-08-07T06:38:25;3.97;;;0.65;;
63016;SDS011;50274;45.640;11.756;2023-08-07T06:40:51;4.77;;;0.80;;
63016;SDS011;50274;45.640;11.756;2023-08-07T06:43:16;6.30;;;1.10;;
63016;SDS011;50274;45.640;11.756;2023-08-07T06:45:42;4.43;;;0.90;;
63016;SDS011;50274;45.640;11.756;2023-08-07T06:48:11;5.22;;;1.40;;
63016;SDS011;50274;45.640;11.756;2023-08-07T06:50:37;5.87;;;1.50;;
63016;SDS011;50274;45.640;11.756;2023-08-07T06:53:03;5.63;;;1.67;;
63016;SDS011;50274;45.640;11.756;2023-08-07T06:55:28;5.37;;;1.30;;
63016;SDS011;50274;45.640;11.756;2023-08-07T06:57:54;4.38;;;1.10;;
63016;SDS011;50274;45.640;11.756;2023-08-07T07:00:20;5.77;;;1.20;;
63016;SDS011;50274;45.640;11.756;2023-08-07T07:02:46;9.70;;;2.10;;
63016;SDS011;50274;45.640;11.756;2023-08-07T07:05:12;6.43;;;1.80;;
63016;SDS011;50274;45.640;11.756;2023-08-07T07:07:38;5.20;;;1.35;;
63016;SDS011;50274;45.640;11.756;2023-08-07T07:10:04;9.33;;;0.97;;
63016;SDS011;50274;45.640;11.756;2023-08-07T07:12:30;5.57;;;1.25;;
63016;SDS011;50274;45.640;11.756;2023-08-07T07:14:56;4.20;;;0.73;;
63016;SDS011;50274;45.640;11.756;2023-08-07T07:17:22;4.67;;;0.80;;
63016;SDS011;50274;45.640;11.756;2023-08-07T07:19:48;3.50;;;0.80;;
63016;SDS011;50274;45.640;11.756;2023-08-07T07:22:13;5.43;;;0.80;;
63016;SDS011;50274;45.640;11.756;2023-08-07T07:24:39;4.20;;;0.50;;
63016;SDS011;50274;45.640;11.756;2023-08-07T07:27:05;4.45;;;0.50;;
63016;SDS011;50274;45.640;11.756;2023-08-07T07:29:31;3.08;;;0.50;;
63016;SDS011;50274;45.640;11.756;2023-08-07T07:31:57;3.10;;;0.50;;
63016;SDS011;50274;45.640;11.756;2023-08-07T07:34:26;2.47;;;0.38;;
63016;SDS011;50274;45.640;11.756;2023-08-07T07:36:52;4.53;;;0.40;;
63016;SDS011;50274;45.640;11.756;2023-08-07T07:39:19;4.93;;;0.55;;
63016;SDS011;50274;45.640;11.756;2023-08-07T07:41:45;8.53;;;0.63;;
63016;SDS011;50274;45.640;11.756;2023-08-07T07:44:11;6.57;;;0.52;;
63016;SDS011;50274;45.640;11.756;2023-08-07T07:46:38;6.85;;;0.70;;
63016;SDS011;50274;45.640;11.756;2023-08-07T07:49:04;9.15;;;0.93;;
63016;SDS011;50274;45.640;11.756;2023-08-07T07:51:30;5.83;;;0.63;;
63016;SDS011;50274;45.640;11.756;2023-08-07T07:53:57;4.82;;;0.40;;
63016;SDS011;50274;45.640;11.756;2023-08-07T07:56:23;4.07;;;0.43;;
63016;SDS011;50274;45.640;11.756;2023-08-07T07:58:49;2.30;;;0.40;;
63016;SDS011;50274;45.640;11.756;2023-08-07T08:01:15;2.97;;;0.30;;
63016;SDS011;50274;45.640;11.756;2023-08-07T08:03:43;4.13;;;0.40;;
63016;SDS011;50274;45.640;11.756;2023-08-07T08:06:10;3.60;;;0.45;;
63016;SDS011;50274;45.640;11.756;2023-08-07T08:08:37;4.30;;;0.40;;
63016;SDS011;50274;45.640;11.756;2023-08-07T08:11:03;2.57;;;0.40;;
63016;SDS011;50274;45.640;11.756;2023-08-07T08:13:29;3.55;;;0.45;;
63016;SDS011;50274;45.640;11.756;2023-08-07T08:15:55;4.35;;;0.50;;
63016;SDS011;50274;45.640;11.756;2023-08-07T08:18:21;3.83;;;0.43;;
63016;SDS011;50274;45.640;11.756;2023-08-07T08:20:46;2.73;;;0.50;;
63016;SDS011;50274;45.640;11.756;2023-08-07T08:23:12;6.38;;;0.65;;
63016;SDS011;50274;45.640;11.756;2023-08-07T08:25:38;3.78;;;0.50;;
63016;SDS011;50274;45.640;11.756;2023-08-07T08:28:04;3.40;;;0.40;;
63016;SDS011;50274;45.640;11.756;2023-08-07T08:30:30;2.90;;;0.40;;
63016;SDS011;50274;45.640;11.756;2023-08-07T08:32:56;2.30;;;0.40;;
63016;SDS011;50274;45.640;11.756;2023-08-07T08:35:22;3.83;;;0.60;;
63016;SDS011;50274;45.640;11.756;2023-08-07T08:37:48;4.03;;;0.50;;
63016;SDS011;50274;45.640;11.756;2023-08-07T08:40:13;3.63;;;0.60;;
63016;SDS011;50274;45.640;11.756;2023-08-07T08:42:43;3.60;;;0.50;;
63016;SDS011;50274;45.640;11.756;2023-08-07T08:45:10;2.50;;;0.40;;
63016;SDS011;50274;45.640;11.756;2023-08-07T08:47:38;6.85;;;0.40;;
63016;SDS011;50274;45.640;11.756;2023-08-07T08:50:09;2.83;;;0.20;;
63016;SDS011;50274;45.640;11.756;2023-08-07T08:52:38;2.95;;;0.40;;
63016;SDS011;50274;45.640;11.756;2023-08-07T08:55:07;2.65;;;0.40;;
63016;SDS011;50274;45.640;11.756;2023-08-07T08:57:34;4.00;;;0.50;;
63016;SDS011;50274;45.640;11.756;2023-08-07T09:00:01;2.05;;;0.22;;
63016;SDS011;50274;45.640;11.756;2023-08-07T09:02:32;2.15;;;0.32;;
63016;SDS011;50274;45.640;11.756;2023-08-07T09:04:59;3.05;;;0.32;;
63016;SDS011;50274;45.640;11.756;2023-08-07T09:07:25;2.78;;;0.30;;
63016;SDS011;50274;45.640;11.756;2023-08-07T09:09:53;1.97;;;0.30;;
63016;SDS011;50274;45.640;11.756;2023-08-07T09:12:19;4.45;;;0.52;;
63016;SDS011;50274;45.640;11.756;2023-08-07T09:14:49;2.33;;;0.30;;
63016;SDS011;50274;45.640;11.756;2023-08-07T09:17:22;2.58;;;0.57;;
63016;SDS011;50274;45.640;11.756;2023-08-07T09:19:50;2.58;;;0.47;;
63016;SDS011;50274;45.640;11.756;2023-08-07T09:22:18;1.87;;;0.40;;
63016;SDS011;50274;45.640;11.756;2023-08-07T09:24:44;1.95;;;0.30;;
63016;SDS011;50274;45.640;11.756;2023-08-07T09:27:10;1.65;;;0.25;;
63016;SDS011;50274;45.640;11.756;2023-08-07T09:29:39;5.60;;;0.30;;
63016;SDS011;50274;45.640;11.756;2023-08-07T09:32:06;2.85;;;0.40;;
63016;SDS011;50274;45.640;11.756;2023-08-07T09:34:43;2.23;;;0.30;;
63016;SDS011;50274;45.640;11.756;2023-08-07T09:37:09;2.67;;;0.30;;
63016;SDS011;50274;45.640;11.756;2023-08-07T09:39:35;2.15;;;0.35;;
63016;SDS011;50274;45.640;11.756;2023-08-07T09:42:05;3.65;;;0.43;;
63016;SDS011;50274;45.640;11.756;2023-08-07T09:44:41;3.27;;;0.40;;
63016;SDS011;50274;45.640;11.756;2023-08-07T09:47:15;1.73;;;0.40;;
63016;SDS011;50274;45.640;11.756;2023-08-07T09:49:42;4.70;;;0.50;;
63016;SDS011;50274;45.640;11.756;2023-08-07T09:52:10;2.30;;;0.38;;
63016;SDS011;50274;45.640;11.756;2023-08-07T09:54:38;2.90;;;0.40;;
63016;SDS011;50274;45.640;11.756;2023-08-07T09:57:04;3.00;;;0.50;;
63016;SDS011;50274;45.640;11.756;2023-08-07T09:59:31;2.53;;;0.50;;
63016;SDS011;50274;45.640;11.756;2023-08-07T10:01:58;5.68;;;0.60;;
63016;SDS011;50274;45.640;11.756;2023-08-07T10:04:26;2.70;;;0.50;;
63016;SDS011;50274;45.640;11.756;2023-08-07T10:06:53;2.90;;;0.40;;
63016;SDS011;50274;45.640;11.756;2023-08-07T10:09:19;2.90;;;0.50;;
63016;SDS011;50274;45.640;11.756;2023-08-07T10:11:46;2.70;;;0.50;;
63016;SDS011;50274;45.640;11.756;2023-08-07T10:14:15;3.33;;;0.40;;
63016;SDS011;50274;45.640;11.756;2023-08-07T10:16:41;1.80;;;0.40;;
63016;SDS011;50274;45.640;11.756;2023-08-07T10:19:09;4.15;;;0.32;;
63016;SDS011;50274;45.640;11.756;2023-08-07T10:21:36;4.05;;;0.40;;
63016;SDS011;50274;45.640;11.756;2023-08-07T10:24:04;6.95;;;0.40;;
63016;SDS011;50274;45.640;11.756;2023-08-07T10:26:32;3.50;;;0.30;;
63016;SDS011;50274;45.640;11.756;2023-08-07T10:29:04;2.33;;;0.30;;
63016;SDS011;50274;45.640;11.756;2023-08-07T10:31:34;2.28;;;0.40;;
63016;SDS011;50274;45.640;11.756;2023-08-07T10:34:01;2.08;;;0.30;;
63016;SDS011;50274;45.640;11.756;2023-08-07T10:36:34;2.22;;;0.28;;
63016;SDS011;50274;45.640;11.756;2023-08-07T10:39:10;4.72;;;0.43;;
63016;SDS011;50274;45.640;11.756;2023-08-07T10:41:38;5.07;;;0.40;;
63016;SDS011;50274;45.640;11.756;2023-08-07T10:44:23;2.78;;;0.50;;
63016;SDS011;50274;45.640;11.756;2023-08-07T10:46:53;2.22;;;0.40;;
63016;SDS011;50274;45.640;11.756;2023-08-07T10:52:09;2.80;;;0.30;;
63016;SDS011;50274;45.640;11.756;2023-08-07T10:54:48;2.83;;;0.40;;
63016;SDS011;50274;45.640;11.756;2023-08-07T10:57:15;2.58;;;0.38;;
63016;SDS011;50274;45.640;11.756;2023-08-07T11:02:30;2.17;;;0.30;;
63016;SDS011;50274;45.640;11.756;2023-08-07T11:04:56;2.72;;;0.40;;
63016;SDS011;50274;45.640;11.756;2023-08-07T11:07:25;2.23;;;0.30;;
63016;SDS011;50274;45.640;11.756;2023-08-07T11:09:52;2.53;;;0.40;;
63016;SDS011;50274;45.640;11.756;2023-08-07T11:12:19;1.63;;;0.30;;
63016;SDS011;50274;45.640;11.756;2023-08-07T11:14:45;1.17;;;0.20;;
63016;SDS011;50274;45.640;11.756;2023-08-07T11:17:12;2.87;;;0.30;;
63016;SDS011;50274;45.640;11.756;2023-08-07T11:19:38;2.17;;;0.40;;
63016;SDS011;50274;45.640;11.756;2023-08-07T11:22:04;2.60;;;0.20;;
63016;SDS011;50274;45.640;11.756;2023-08-07T11:24:30;2.00;;;0.30;;
63016;SDS011;50274;45.640;11.756;2023-08-07T11:26:56;2.67;;;0.33;;
63016;SDS011;50274;45.640;11.756;2023-08-07T11:29:23;2.00;;;0.20;;
63016;SDS011;50274;45.640;11.756;2023-08-07T11:31:53;2.50;;;0.30;;
63016;SDS011;50274;45.640;11.756;2023-08-07T11:34:18;2.25;;;0.28;;
63016;SDS011;50274;45.640;11.756;2023-08-07T11:36:45;4.25;;;0.38;;
63016;SDS011;50274;45.640;11.756;2023-08-07T11:39:12;2.17;;;0.20;;
63016;SDS011;50274;45.640;11.756;2023-08-07T11:41:38;3.30;;;0.40;;
63016;SDS011;50274;45.640;11.756;2023-08-07T11:44:07;1.67;;;0.40;;
63016;SDS011;50274;45.640;11.756;2023-08-07T11:46:33;1.60;;;0.30;;
63016;SDS011;50274;45.640;11.756;2023-08-07T11:49:00;2.03;;;0.30;;
63016;SDS011;50274;45.640;11.756;2023-08-07T11:51:28;1.77;;;0.30;;
63016;SDS011;50274;45.640;11.756;2023-08-07T11:53:54;1.80;;;0.30;;
63016;SDS011;50274;45.640;11.756;2023-08-07T11:56:23;2.17;;;0.30;;
63016;SDS011;50274;45.640;11.756;2023-08-07T11:58:49;2.25;;;0.32;;
63016;SDS011;50274;45.640;11.756;2023-08-07T12:01:18;3.05;;;0.38;;
63016;SDS011;50274;45.640;11.756;2023-08-07T12:03:54;2.70;;;0.40;;
63016;SDS011;50274;45.640;11.756;2023-08-07T12:06:22;2.08;;;0.40;;
63016;SDS011;50274;45.640;11.756;2023-08-07T12:08:49;2.75;;;0.40;;
63016;SDS011;50274;45.640;11.756;2023-08-07T12:11:19;2.80;;;0.40;;
63016;SDS011;50274;45.640;11.756;2023-08-07T12:13:49;2.35;;;0.40;;
63016;SDS011;50274;45.640;11.756;2023-08-07T12:16:15;1.90;;;0.30;;
63016;SDS011;50274;45.640;11.756;2023-08-07T12:18:45;2.00;;;0.38;;
63016;SDS011;50274;45.640;11.756;2023-08-07T12:21:18;1.73;;;0.30;;
63016;SDS011;50274;45.640;11.756;2023-08-07T12:23:47;1.88;;;0.28;;
63016;SDS011;50274;45.640;11.756;2023-08-07T12:26:13;1.80;;;0.30;;
63016;SDS011;50274;45.640;11.756;2023-08-07T12:28:40;3.15;;;0.47;;
63016;SDS011;50274;45.640;11.756;2023-08-07T12:31:05;1.50;;;0.30;;
63016;SDS011;50274;45.640;11.756;2023-08-07T12:33:34;1.73;;;0.32;;
63016;SDS011;50274;45.640;11.756;2023-08-07T12:36:00;2.27;;;0.50;;
63016;SDS011;50274;45.640;11.756;2023-08-07T12:38:27;2.97;;;0.25;;
63016;SDS011;50274;45.640;11.756;2023-08-07T12:40:53;2.13;;;0.38;;
63016;SDS011;50274;45.640;11.756;2023-08-07T12:43:19;1.98;;;0.30;;
63016;SDS011;50274;45.640;11.756;2023-08-07T12:45:45;3.83;;;0.30;;
63016;SDS011;50274;45.640;11.756;2023-08-07T12:48:12;3.00;;;0.50;;
63016;SDS011;50274;45.640;11.756;2023-08-07T12:50:38;2.33;;;0.38;;
63016;SDS011;50274;45.640;11.756;2023-08-07T12:53:04;3.17;;;0.43;;
63016;SDS011;50274;45.640;11.756;2023-08-07T12:55:31;1.85;;;0.30;;
63016;SDS011;50274;45.640;11.756;2023-08-07T12:57:57;3.03;;;0.37;;
63016;SDS011;50274;45.640;11.756;2023-08-07T13:00:23;2.97;;;0.40;;
63016;SDS011;50274;45.640;11.756;2023-08-07T13:02:50;2.08;;;0.30;;
63016;SDS011;50274;45.640;11.756;2023-08-07T13:05:17;1.98;;;0.30;;
63016;SDS011;50274;45.640;11.756;2023-08-07T13:07:43;2.42;;;0.40;;
63016;SDS011;50274;45.640;11.756;2023-08-07T13:13:32;1.85;;;0.32;;
63016;SDS011;50274;45.640;11.756;2023-08-07T13:15:58;2.85;;;0.47;;
63016;SDS011;50274;45.640;11.756;2023-08-07T13:18:24;3.87;;;0.57;;
63016;SDS011;50274;45.640;11.756;2023-08-07T13:20:49;2.72;;;0.50;;
63016;SDS011;50274;45.640;11.756;2023-08-07T13:23:15;7.53;;;0.50;;
63016;SDS011;50274;45.640;11.756;2023-08-07T13:25:41;3.20;;;0.40;;
63016;SDS011;50274;45.640;11.756;2023-08-07T13:28:07;2.00;;;0.37;;
63016;SDS011;50274;45.640;11.756;2023-08-07T13:30:33;2.97;;;0.52;;
63016;SDS011;50274;45.640;11.756;2023-08-07T13:32:59;3.67;;;0.40;;
63016;SDS011;50274;45.640;11.756;2023-08-07T13:35:25;4.30;;;0.83;;
63016;SDS011;50274;45.640;11.756;2023-08-07T13:37:51;2.72;;;0.30;;
63016;SDS011;50274;45.640;11.756;2023-08-07T13:40:17;2.22;;;0.38;;
63016;SDS011;50274;45.640;11.756;2023-08-07T13:42:43;1.90;;;0.32;;
63016;SDS011;50274;45.640;11.756;2023-08-07T13:45:11;2.07;;;0.30;;
63016;SDS011;50274;45.640;11.756;2023-08-07T13:47:38;4.00;;;0.40;;
63016;SDS011;50274;45.640;11.756;2023-08-07T13:50:04;2.22;;;0.57;;
63016;SDS011;50274;45.640;11.756;2023-08-07T13:52:32;3.53;;;0.30;;
63016;SDS011;50274;45.640;11.756;2023-08-07T13:54:59;3.45;;;0.40;;
63016;SDS011;50274;45.640;11.756;2023-08-07T13:57:24;2.23;;;0.40;;
63016;SDS011;50274;45.640;11.756;2023-08-07T13:59:50;2.75;;;0.35;;
63016;SDS011;50274;45.640;11.756;2023-08-07T14:02:16;2.53;;;0.40;;
63016;SDS011;50274;45.640;11.756;2023-08-07T14:04:42;5.45;;;0.30;;
63016;SDS011;50274;45.640;11.756;2023-08-07T14:07:10;4.35;;;0.38;;
63016;SDS011;50274;45.640;11.756;2023-08-07T14:09:36;5.30;;;0.43;;
63016;SDS011;50274;45.640;11.756;2023-08-07T14:12:03;2.57;;;0.40;;
63016;SDS011;50274;45.640;11.756;2023-08-07T14:14:28;3.03;;;0.40;;
63016;SDS011;50274;45.640;11.756;2023-08-07T14:16:54;2.65;;;0.32;;
63016;SDS011;50274;45.640;11.756;2023-08-07T14:19:22;2.75;;;0.32;;
63016;SDS011;50274;45.640;11.756;2023-08-07T14:21:49;3.97;;;0.50;;
63016;SDS011;50274;45.640;11.756;2023-08-07T14:24:15;2.53;;;0.43;;
63016;SDS011;50274;45.640;11.756;2023-08-07T14:26:42;2.60;;;0.40;;
63016;SDS011;50274;45.640;11.756;2023-08-07T14:29:08;2.60;;;0.40;;
63016;SDS011;50274;45.640;11.756;2023-08-07T14:31:34;1.90;;;0.30;;
63016;SDS011;50274;45.640;11.756;2023-08-07T14:34:00;1.25;;;0.20;;
63016;SDS011;50274;45.640;11.756;2023-08-07T14:36:26;4.30;;;0.50;;
63016;SDS011;50274;45.640;11.756;2023-08-07T14:38:51;3.03;;;0.40;;
63016;SDS011;50274;45.640;11.756;2023-08-07T14:41:17;2.67;;;0.40;;
63016;SDS011;50274;45.640;11.756;2023-08-07T14:43:43;5.43;;;0.30;;